Time;durP1;ratioP1;P1;durP2;ratioP2;P2;SDS_P1;SDS_P2;PMS_P1;PMS_P2;Temp;Humidity;BMP_temperature;BMP_pressure;BME280_temperature;BME280_humidity;BME280_pressure;Samples;Min_cycle;Max_cycle;Signal;HPM_P1;HPM_P2
2023/06/15 00:00:42;;;;;;;13.20;6.72;;;22.00;86.10;;;;;;5078260;28;20044;-52
2023/06/15 00:03:08;;;;;;;9.60;6.47;;;21.90;86.20;;;;;;5074328;28;20468;-52
2023/06/15 00:05:33;;;;;;;8.90;6.53;;;21.90;86.30;;;;;;5077001;28;20437;-52
2023/06/15 00:07:59;;;;;;;13.18;7.82;;;21.90;86.40;;;;;;5072896;28;20538;-51
2023/06/15 00:10:25;;;;;;;7.30;5.80;;;21.90;86.50;;;;;;5076824;28;20043;-52
2023/06/15 00:12:51;;;;;;;12.40;7.40;;;21.90;86.70;;;;;;5076012;28;20037;-52
2023/06/15 00:15:17;;;;;;;10.63;7.72;;;21.80;86.70;;;;;;5077953;28;20663;-52
2023/06/15 00:17:43;;;;;;;9.07;6.78;;;21.80;86.90;;;;;;5075398;28;20052;-52
2023/06/15 00:20:12;;;;;;;11.68;7.07;;;21.80;87.00;;;;;;5072814;28;20045;-52
2023/06/15 00:22:41;;;;;;;8.88;6.40;;;21.70;87.70;;;;;;5077102;28;20570;-51
2023/06/15 00:25:08;;;;;;;9.10;7.07;;;21.70;87.30;;;;;;5077832;28;20431;-52
2023/06/15 00:27:35;;;;;;;10.93;7.05;;;21.70;87.50;;;;;;5090566;27;20048;-52
2023/06/15 00:30:01;;;;;;;10.07;7.32;;;21.60;87.60;;;;;;5075329;28;20076;-52
2023/06/15 00:32:27;;;;;;;9.88;7.38;;;21.60;87.80;;;;;;5078243;28;20044;-52
2023/06/15 00:34:53;;;;;;;15.43;8.65;;;21.60;87.80;;;;;;5093770;27;20581;-52
2023/06/15 00:37:18;;;;;;;11.25;7.20;;;21.50;88.00;;;;;;5076067;28;20049;-52
2023/06/15 00:39:44;;;;;;;12.43;7.57;;;21.50;88.10;;;;;;5077174;28;20075;-52
2023/06/15 00:42:10;;;;;;;9.65;7.70;;;21.40;88.30;;;;;;5076378;28;20448;-52
2023/06/15 00:44:36;;;;;;;11.68;8.95;;;21.40;88.50;;;;;;5076267;28;20427;-52
2023/06/15 00:47:02;;;;;;;10.40;6.72;;;21.30;88.60;;;;;;5076555;28;20404;-52
2023/06/15 00:49:28;;;;;;;14.40;7.40;;;21.20;88.80;;;;;;5077128;28;21002;-52
2023/06/15 00:51:54;;;;;;;11.98;8.00;;;21.20;88.90;;;;;;5077562;28;20036;-52
2023/06/15 00:54:23;;;;;;;8.98;7.07;;;21.20;88.90;;;;;;5077593;28;20040;-52
2023/06/15 00:56:50;;;;;;;15.00;7.93;;;21.20;89.00;;;;;;5077007;28;21615;-52
2023/06/15 00:59:17;;;;;;;12.38;8.30;;;21.20;89.10;;;;;;5092008;27;20055;-52
2023/06/15 01:01:44;;;;;;;8.82;7.47;;;21.20;89.20;;;;;;5074800;28;20037;-52
2023/06/15 01:04:11;;;;;;;11.82;6.85;;;21.20;89.30;;;;;;5075709;28;20076;-52
2023/06/15 01:06:41;;;;;;;10.77;7.53;;;21.20;89.50;;;;;;5076311;28;20041;-52
2023/06/15 01:09:09;;;;;;;8.77;7.50;;;21.00;89.50;;;;;;5074945;28;20044;-52
2023/06/15 01:11:36;;;;;;;11.20;7.30;;;21.10;89.70;;;;;;5075682;28;20041;-52
2023/06/15 01:14:04;;;;;;;11.80;7.88;;;21.10;89.80;;;;;;5076507;28;20068;-52
2023/06/15 01:16:39;;;;;;;7.55;6.78;;;21.10;90.00;;;;;;5073848;28;20053;-52
2023/06/15 01:19:09;;;;;;;11.10;8.10;;;21.00;89.90;;;;;;5073032;28;20037;-52
2023/06/15 01:21:36;;;;;;;10.00;6.95;;;21.00;90.00;;;;;;5075218;28;20044;-52
2023/06/15 01:24:09;;;;;;;11.43;7.07;;;21.00;90.00;;;;;;5076149;28;20067;-52
2023/06/15 01:26:38;;;;;;;13.00;8.05;;;20.90;90.10;;;;;;5076534;28;20150;-52
2023/06/15 01:29:05;;;;;;;13.13;7.45;;;20.90;90.10;;;;;;5074800;28;20135;-51
2023/06/15 01:31:31;;;;;;;11.48;6.97;;;20.90;90.10;;;;;;5077693;28;20131;-52
2023/06/15 01:34:00;;;;;;;12.25;8.13;;;20.90;90.10;;;;;;5075134;28;20405;-52
2023/06/15 01:36:26;;;;;;;9.90;8.15;;;20.90;90.40;;;;;;5076803;28;20045;-52
2023/06/15 01:38:54;;;;;;;9.30;6.75;;;20.80;90.20;;;;;;5076050;28;20103;-52
2023/06/15 01:41:23;;;;;;;9.77;7.63;;;20.80;90.50;;;;;;5075930;28;20044;-52
2023/06/15 01:43:50;;;;;;;13.52;7.22;;;20.80;90.30;;;;;;5075477;28;20111;-52
2023/06/15 01:46:17;;;;;;;9.52;7.15;;;20.80;90.30;;;;;;5076668;28;20052;-52
2023/06/15 01:48:42;;;;;;;12.68;7.22;;;20.80;90.40;;;;;;5076660;28;20049;-52
2023/06/15 01:51:10;;;;;;;10.02;8.02;;;20.80;90.30;;;;;;5074372;28;20040;-52
2023/06/15 01:53:36;;;;;;;10.05;7.80;;;20.80;90.40;;;;;;5076544;28;20039;-52
2023/06/15 01:56:02;;;;;;;11.80;7.82;;;20.80;90.40;;;;;;5074283;28;20052;-51
2023/06/15 01:58:28;;;;;;;10.60;8.30;;;20.70;90.40;;;;;;5068126;28;20045;-51
2023/06/15 02:00:53;;;;;;;10.15;6.95;;;20.70;90.50;;;;;;5075915;28;20036;-52
2023/06/15 02:03:19;;;;;;;12.95;8.25;;;20.70;90.50;;;;;;5075333;28;20515;-52
2023/06/15 02:05:45;;;;;;;10.77;7.50;;;20.70;90.60;;;;;;5074944;28;20409;-52
2023/06/15 02:08:12;;;;;;;10.38;7.93;;;20.70;90.60;;;;;;5090514;27;20048;-52
2023/06/15 02:10:39;;;;;;;10.65;7.88;;;20.60;90.60;;;;;;5076492;28;20663;-51
2023/06/15 02:13:11;;;;;;;10.55;7.32;;;20.60;90.70;;;;;;5067665;28;20041;-52
2023/06/15 02:15:38;;;;;;;9.77;7.03;;;20.60;90.70;;;;;;5075918;28;20032;-52
2023/06/15 02:18:11;;;;;;;13.32;7.43;;;20.50;90.70;;;;;;5077006;28;20107;-51
2023/06/15 02:20:40;;;;;;;11.82;7.25;;;20.50;90.70;;;;;;5071907;28;20098;-52
2023/06/15 02:23:06;;;;;;;8.45;6.47;;;20.50;90.80;;;;;;5075186;28;20167;-52
2023/06/15 02:25:32;;;;;;;9.88;7.72;;;20.40;90.80;;;;;;5074719;28;20048;-53
2023/06/15 02:27:57;;;;;;;9.15;6.72;;;20.40;90.80;;;;;;5073209;28;20041;-53
2023/06/15 02:30:27;;;;;;;8.35;7.13;;;20.40;90.90;;;;;;5073808;27;20049;-52
2023/06/15 02:32:53;;;;;;;11.30;7.55;;;20.30;90.90;;;;;;5074393;28;20043;-52
2023/06/15 02:35:20;;;;;;;11.52;8.00;;;20.30;90.90;;;;;;5071313;28;20049;-52
2023/06/15 02:37:46;;;;;;;11.13;7.38;;;20.20;91.00;;;;;;5074630;28;20044;-52
2023/06/15 02:40:12;;;;;;;10.35;7.47;;;20.30;91.00;;;;;;5072926;28;20068;-52
2023/06/15 02:42:38;;;;;;;11.65;7.30;;;20.20;91.00;;;;;;5071077;28;20036;-52
2023/06/15 02:45:06;;;;;;;11.73;8.00;;;20.20;91.10;;;;;;5072271;28;20045;-52
2023/06/15 02:47:34;;;;;;;12.75;7.10;;;20.10;91.10;;;;;;5074621;28;20128;-52
2023/06/15 02:50:00;;;;;;;11.55;8.10;;;20.10;91.10;;;;;;5071583;28;20657;-52
2023/06/15 02:52:27;;;;;;;9.65;7.68;;;20.10;91.10;;;;;;5073126;28;20044;-52
2023/06/15 02:54:52;;;;;;;14.65;6.97;;;20.10;91.20;;;;;;5073893;28;20121;-52
2023/06/15 02:57:18;;;;;;;9.98;6.40;;;20.10;91.20;;;;;;5074118;28;20089;-52
2023/06/15 02:59:44;;;;;;;12.65;7.10;;;20.00;91.20;;;;;;5071572;28;20041;-52
2023/06/15 03:02:10;;;;;;;12.90;7.85;;;20.00;91.20;;;;;;5072842;28;20080;-52
2023/06/15 03:04:44;;;;;;;9.93;7.55;;;20.00;91.20;;;;;;5073115;28;20067;-52
2023/06/15 03:07:16;;;;;;;11.35;7.88;;;19.90;91.30;;;;;;5071531;28;20037;-52
2023/06/15 03:09:45;;;;;;;16.85;8.02;;;19.90;91.30;;;;;;5076592;28;20053;-52
2023/06/15 03:12:11;;;;;;;10.50;7.40;;;19.90;91.40;;;;;;5076449;28;20876;-52
2023/06/15 03:14:37;;;;;;;13.10;7.63;;;19.90;91.40;;;;;;5076967;28;20044;-52
2023/06/15 03:17:04;;;;;;;12.85;8.20;;;19.80;91.30;;;;;;5075815;28;20036;-52
2023/06/15 03:19:30;;;;;;;12.18;7.30;;;19.80;91.40;;;;;;5074559;28;20040;-53
2023/06/15 03:21:57;;;;;;;11.52;8.18;;;19.80;91.40;;;;;;5077610;28;20158;-52
2023/06/15 03:24:25;;;;;;;9.32;6.82;;;19.80;91.50;;;;;;5076244;28;20358;-52
2023/06/15 03:26:51;;;;;;;14.32;8.90;;;19.70;91.50;;;;;;5078724;28;20044;-51
2023/06/15 03:29:17;;;;;;;11.38;7.43;;;19.70;91.50;;;;;;5079101;27;20187;-52
2023/06/15 03:31:42;;;;;;;10.70;7.13;;;19.70;91.50;;;;;;5078870;28;20041;-52
2023/06/15 03:34:09;;;;;;;14.80;6.65;;;19.70;91.50;;;;;;5077874;28;20041;-52
2023/06/15 03:36:35;;;;;;;12.15;7.78;;;19.70;91.50;;;;;;5078600;28;20052;-52
2023/06/15 03:39:04;;;;;;;10.05;7.60;;;19.70;91.50;;;;;;5077073;28;20470;-51
2023/06/15 03:41:30;;;;;;;14.75;8.20;;;19.60;91.60;;;;;;5075190;27;20602;-51
2023/06/15 03:43:57;;;;;;;11.25;8.05;;;19.60;91.60;;;;;;5076046;28;20051;-52
2023/06/15 03:46:22;;;;;;;9.50;7.18;;;19.60;91.60;;;;;;5077718;28;20060;-52
2023/06/15 03:48:51;;;;;;;13.23;7.25;;;19.60;91.70;;;;;;5078410;28;20113;-51
2023/06/15 03:51:17;;;;;;;11.52;7.80;;;19.60;91.60;;;;;;5077293;28;20130;-52
2023/06/15 03:53:43;;;;;;;11.05;7.82;;;19.60;91.90;;;;;;5072853;28;20098;-51
2023/06/15 03:56:08;;;;;;;8.63;6.57;;;19.60;91.70;;;;;;5077060;28;20504;-52
2023/06/15 03:58:34;;;;;;;14.73;7.43;;;19.60;91.70;;;;;;5070489;28;20585;-51
2023/06/15 04:01:01;;;;;;;12.15;7.57;;;19.60;91.70;;;;;;5070134;28;20175;-51
2023/06/15 04:03:27;;;;;;;15.60;8.68;;;19.60;91.80;;;;;;5079114;28;20413;-52
2023/06/15 04:05:54;;;;;;;14.98;8.02;;;19.60;91.80;;;;;;5078487;28;20048;-52
2023/06/15 04:08:20;;;;;;;11.90;7.32;;;19.60;91.80;;;;;;5078077;28;20041;-52
2023/06/15 04:10:45;;;;;;;16.30;7.38;;;19.60;91.80;;;;;;5078914;28;20430;-51
2023/06/15 04:13:11;;;;;;;9.15;7.20;;;19.50;91.80;;;;;;5078855;28;20062;-51
2023/06/15 04:15:37;;;;;;;14.57;7.47;;;19.50;91.90;;;;;;5078990;28;20047;-51
2023/06/15 04:18:03;;;;;;;10.07;7.25;;;19.20;91.80;;;;;;5093322;27;20764;-51
2023/06/15 04:20:30;;;;;;;12.18;7.20;;;19.50;91.90;;;;;;5076337;28;20918;-52
2023/06/15 04:22:56;;;;;;;18.50;8.63;;;19.50;91.90;;;;;;5078172;28;20051;-51
2023/06/15 04:25:22;;;;;;;13.50;7.65;;;19.50;91.90;;;;;;5077074;28;20040;-52
2023/06/15 04:27:49;;;;;;;12.23;8.40;;;19.50;91.90;;;;;;5093328;27;20056;-52
2023/06/15 04:30:16;;;;;;;12.40;8.30;;;19.50;91.90;;;;;;5077289;28;20067;-52
2023/06/15 04:32:43;;;;;;;12.63;7.55;;;19.50;91.90;;;;;;5078923;28;20444;-52
2023/06/15 04:35:15;;;;;;;9.52;7.57;;;19.60;91.90;;;;;;5077454;28;20087;-52
2023/06/15 04:37:41;;;;;;;10.27;7.75;;;19.60;91.90;;;;;;5078463;28;21226;-52
2023/06/15 04:40:09;;;;;;;10.30;7.43;;;19.60;92.00;;;;;;5078288;28;20037;-51
2023/06/15 04:42:40;;;;;;;11.73;8.07;;;19.60;92.00;;;;;;5077495;28;20222;-52
2023/06/15 04:45:07;;;;;;;12.60;7.47;;;19.60;92.00;;;;;;5076423;28;20041;-51
2023/06/15 04:47:32;;;;;;;14.05;8.35;;;19.70;92.00;;;;;;5069863;28;20059;-52
2023/06/15 04:49:58;;;;;;;10.63;7.40;;;19.70;92.00;;;;;;5077017;28;20039;-52
2023/06/15 04:52:24;;;;;;;12.73;6.90;;;19.70;92.00;;;;;;5077786;28;20548;-52
2023/06/15 04:54:50;;;;;;;9.95;7.53;;;19.70;92.00;;;;;;5077036;28;20049;-51
2023/06/15 04:57:15;;;;;;;11.77;8.27;;;19.70;92.00;;;;;;5077613;28;20535;-51
2023/06/15 04:59:41;;;;;;;10.95;7.03;;;19.70;91.90;;;;;;5076362;28;20037;-52
2023/06/15 05:02:07;;;;;;;12.77;7.53;;;19.70;91.90;;;;;;5091897;27;20041;-52
2023/06/15 05:04:33;;;;;;;13.23;7.97;;;19.80;92.00;;;;;;5077847;27;20047;-52
2023/06/15 05:07:00;;;;;;;14.15;8.02;;;19.70;91.90;;;;;;5076708;28;20086;-51
2023/06/15 05:09:26;;;;;;;14.10;7.45;;;19.70;91.90;;;;;;5092424;27;20579;-52
2023/06/15 05:11:51;;;;;;;20.52;7.35;;;19.70;91.90;;;;;;5077172;28;20048;-52
2023/06/15 05:14:17;;;;;;;11.82;7.80;;;19.70;91.90;;;;;;5076480;28;20049;-51
2023/06/15 05:16:43;;;;;;;14.70;8.43;;;19.70;91.90;;;;;;5075700;28;20114;-52
2023/06/15 05:19:08;;;;;;;8.90;7.13;;;19.70;91.80;;;;;;5091679;27;20036;-51
2023/06/15 05:21:34;;;;;;;15.88;8.15;;;19.70;91.90;;;;;;5077572;28;20075;-52
2023/06/15 05:24:00;;;;;;;11.32;7.15;;;19.70;91.90;;;;;;5075356;28;20084;-52
2023/06/15 05:26:25;;;;;;;13.30;7.15;;;19.70;91.90;;;;;;5076792;28;20136;-52
2023/06/15 05:28:52;;;;;;;12.10;7.47;;;19.80;92.00;;;;;;5076193;28;20459;-52
2023/06/15 05:31:18;;;;;;;15.70;9.00;;;19.80;92.00;;;;;;5076495;28;20052;-51
2023/06/15 05:33:44;;;;;;;14.45;8.75;;;19.80;92.00;;;;;;5075730;28;20045;-52
2023/06/15 05:36:09;;;;;;;11.57;7.00;;;19.80;92.00;;;;;;5072294;28;20068;-51
2023/06/15 05:38:35;;;;;;;15.02;7.90;;;19.80;92.00;;;;;;5075324;28;20056;-52
2023/06/15 05:41:01;;;;;;;12.27;7.72;;;19.80;92.00;;;;;;5074712;28;20051;-52
2023/06/15 05:43:27;;;;;;;11.35;6.65;;;19.70;92.00;;;;;;5072767;28;20419;-52
2023/06/15 05:45:52;;;;;;;8.38;7.50;;;19.80;92.00;;;;;;5067394;28;20036;-52
2023/06/15 05:48:19;;;;;;;10.77;6.85;;;19.80;92.10;;;;;;5076023;28;20044;-52
2023/06/15 05:50:45;;;;;;;12.18;7.95;;;19.80;92.10;;;;;;5076149;28;20080;-52
2023/06/15 05:53:11;;;;;;;11.40;7.20;;;19.80;92.20;;;;;;5075983;28;20064;-52
2023/06/15 05:55:37;;;;;;;15.55;8.30;;;19.80;92.20;;;;;;5092173;27;20033;-52
2023/06/15 05:58:03;;;;;;;16.20;7.57;;;19.80;92.20;;;;;;5091912;27;20052;-52
2023/06/15 06:00:30;;;;;;;13.60;8.27;;;19.90;92.20;;;;;;5076020;28;20055;-52
2023/06/15 06:02:57;;;;;;;12.73;7.60;;;19.90;92.30;;;;;;5073974;28;20066;-52
2023/06/15 06:05:25;;;;;;;10.90;8.02;;;20.00;92.30;;;;;;5076442;28;20066;-52
2023/06/15 06:07:51;;;;;;;13.30;7.28;;;20.00;92.40;;;;;;5075342;28;20072;-52
2023/06/15 06:10:18;;;;;;;12.98;8.15;;;20.10;92.40;;;;;;5074040;28;20041;-52
2023/06/15 06:12:43;;;;;;;17.80;9.75;;;20.30;92.40;;;;;;5076827;28;20040;-52
2023/06/15 06:15:09;;;;;;;25.08;9.52;;;20.30;92.30;;;;;;5076271;28;20846;-52
2023/06/15 06:17:35;;;;;;;13.07;7.45;;;20.40;92.30;;;;;;5091180;27;20171;-52
2023/06/15 06:20:01;;;;;;;12.75;8.02;;;20.50;92.30;;;;;;5074071;28;20060;-52
2023/06/15 06:22:27;;;;;;;10.20;7.28;;;20.50;92.10;;;;;;5074907;28;20051;-51
2023/06/15 06:24:52;;;;;;;9.50;6.63;;;20.50;92.00;;;;;;5075238;28;20052;-52
2023/06/15 06:27:18;;;;;;;11.50;7.43;;;20.50;92.20;;;;;;5070638;28;20041;-52
2023/06/15 06:29:45;;;;;;;14.73;7.88;;;20.50;91.90;;;;;;5084291;27;20049;-51
2023/06/15 06:32:11;;;;;;;13.52;7.47;;;20.50;91.90;;;;;;5087801;27;20045;-52
2023/06/15 06:34:37;;;;;;;13.18;7.25;;;20.60;92.00;;;;;;5076501;28;20044;-52
2023/06/15 06:37:05;;;;;;;10.80;7.18;;;20.60;92.00;;;;;;5075141;28;20051;-52
2023/06/15 06:39:32;;;;;;;14.02;7.00;;;20.70;92.00;;;;;;5074976;28;20677;-52
2023/06/15 06:41:58;;;;;;;22.52;8.90;;;20.70;92.10;;;;;;5074916;28;20045;-52
2023/06/15 06:44:24;;;;;;;37.58;10.18;;;20.70;92.00;;;;;;5072607;28;20110;-52
2023/06/15 06:46:49;;;;;;;13.27;8.63;;;20.70;92.10;;;;;;5071107;28;20536;-52
2023/06/15 06:49:15;;;;;;;13.10;8.32;;;20.70;92.10;;;;;;5074672;28;20605;-52
2023/06/15 06:51:41;;;;;;;11.75;8.02;;;20.70;92.10;;;;;;5075271;28;20048;-52
2023/06/15 06:54:07;;;;;;;18.73;8.13;;;20.80;92.20;;;;;;5074193;28;20037;-52
2023/06/15 06:56:33;;;;;;;13.23;7.60;;;20.80;92.30;;;;;;5069250;28;20068;-52
2023/06/15 06:58:59;;;;;;;10.38;7.90;;;20.80;92.30;;;;;;5069989;28;20037;-52
2023/06/15 07:01:25;;;;;;;15.57;7.97;;;20.80;92.30;;;;;;5071824;27;20071;-52
2023/06/15 07:03:50;;;;;;;10.70;8.55;;;20.80;92.30;;;;;;5072968;28;20139;-51
2023/06/15 07:06:16;;;;;;;9.95;7.05;;;20.80;92.30;;;;;;5073843;28;20441;-51
2023/06/15 07:08:42;;;;;;;11.60;7.53;;;20.80;92.20;;;;;;5074588;28;20045;-52
2023/06/15 07:11:08;;;;;;;10.40;7.35;;;20.90;92.20;;;;;;5070621;28;20044;-51
2023/06/15 07:13:34;;;;;;;10.95;6.90;;;20.90;92.10;;;;;;5072131;28;20046;-51
2023/06/15 07:16:00;;;;;;;13.13;7.03;;;20.90;92.10;;;;;;5088090;27;20435;-51
2023/06/15 07:18:26;;;;;;;12.45;6.55;;;21.00;92.10;;;;;;5070744;28;20056;-51
2023/06/15 07:20:54;;;;;;;10.20;6.50;;;21.00;92.10;;;;;;5069728;28;20036;-51
2023/06/15 07:23:24;;;;;;;12.15;6.50;;;21.00;92.00;;;;;;5072252;28;20056;-52
2023/06/15 07:25:53;;;;;;;7.68;5.95;;;21.10;91.90;;;;;;5071690;28;20920;-51
2023/06/15 07:28:19;;;;;;;12.20;6.13;;;21.10;91.90;;;;;;5071668;27;20566;-51
2023/06/15 07:30:49;;;;;;;10.88;6.40;;;21.20;91.80;;;;;;5072043;28;20090;-51
2023/06/15 07:33:15;;;;;;;12.82;6.32;;;21.20;91.90;;;;;;5071845;28;20039;-52
2023/06/15 07:35:42;;;;;;;11.10;6.97;;;21.30;91.60;;;;;;5073545;28;20591;-52
2023/06/15 07:38:07;;;;;;;8.93;6.03;;;21.30;91.50;;;;;;5073810;28;20183;-51
2023/06/15 07:40:33;;;;;;;8.18;5.50;;;21.40;91.50;;;;;;5091129;27;20105;-52
2023/06/15 07:42:59;;;;;;;7.75;4.95;;;21.50;91.40;;;;;;5071177;28;20076;-52
2023/06/15 07:45:25;;;;;;;9.63;4.65;;;21.50;91.10;;;;;;5073205;28;20056;-52
2023/06/15 07:47:51;;;;;;;9.27;4.85;;;21.50;91.00;;;;;;5073562;28;20098;-51
2023/06/15 07:50:16;;;;;;;7.53;5.60;;;21.60;91.00;;;;;;5075477;28;20044;-51
2023/06/15 07:52:42;;;;;;;9.02;5.40;;;21.60;90.90;;;;;;5073839;28;20040;-52
2023/06/15 07:55:08;;;;;;;8.85;4.60;;;21.60;90.80;;;;;;5076352;28;20041;-52
2023/06/15 07:57:37;;;;;;;6.95;4.22;;;21.70;90.80;;;;;;5074738;28;20102;-51
2023/06/15 08:00:05;;;;;;;11.32;4.57;;;21.70;90.70;;;;;;5076478;28;20098;-52
2023/06/15 08:02:31;;;;;;;12.20;5.35;;;21.70;90.50;;;;;;5073310;28;20029;-51
2023/06/15 08:04:57;;;;;;;6.72;4.22;;;21.70;90.30;;;;;;5078376;28;20040;-52
2023/06/15 08:07:22;;;;;;;13.32;5.38;;;21.80;90.20;;;;;;5076234;28;20044;-51
2023/06/15 08:09:48;;;;;;;8.90;3.97;;;21.80;90.00;;;;;;5092828;27;20135;-53
2023/06/15 08:12:14;;;;;;;15.45;5.28;;;21.80;89.60;;;;;;5077940;28;20047;-51
2023/06/15 08:14:40;;;;;;;12.90;5.53;;;21.90;89.20;;;;;;5076708;28;20048;-52
2023/06/15 08:17:06;;;;;;;10.32;5.28;;;21.90;89.00;;;;;;5092041;27;20037;-51
2023/06/15 08:19:31;;;;;;;8.02;4.13;;;21.90;89.00;;;;;;5074274;28;20072;-51
2023/06/15 08:21:57;;;;;;;10.80;4.15;;;21.90;88.80;;;;;;5075359;28;20040;-51
2023/06/15 08:24:23;;;;;;;8.85;5.20;;;21.90;88.80;;;;;;5076015;28;20060;-51
2023/06/15 08:26:48;;;;;;;8.15;4.50;;;21.80;88.70;;;;;;5074098;28;20044;-51
2023/06/15 08:29:15;;;;;;;7.88;4.30;;;21.90;88.50;;;;;;5074463;27;20044;-53
2023/06/15 08:31:41;;;;;;;7.85;4.28;;;21.90;88.20;;;;;;5077601;28;20041;-51
2023/06/15 08:34:08;;;;;;;8.30;5.30;;;21.70;87.80;;;;;;5076995;28;20079;-52
2023/06/15 08:36:34;;;;;;;10.93;5.35;;;21.90;88.10;;;;;;5077877;28;20121;-52
2023/06/15 08:39:00;;;;;;;10.45;4.75;;;21.90;88.30;;;;;;5079206;28;20401;-52
2023/06/15 08:41:27;;;;;;;13.10;4.80;;;22.00;88.60;;;;;;5076753;28;20516;-51
2023/06/15 08:43:53;;;;;;;11.15;4.68;;;22.00;88.80;;;;;;5076774;28;20040;-52
2023/06/15 08:46:21;;;;;;;11.23;5.20;;;22.10;88.80;;;;;;5074714;28;20044;-52
2023/06/15 08:48:50;;;;;;;8.82;5.20;;;22.10;88.70;;;;;;5072202;28;20580;-52
2023/06/15 08:51:16;;;;;;;7.05;4.63;;;22.20;88.20;;;;;;5074381;28;20036;-51
2023/06/15 08:53:44;;;;;;;6.57;4.72;;;22.20;88.10;;;;;;5076626;28;20357;-52
2023/06/15 08:56:12;;;;;;;9.75;4.85;;;22.20;88.00;;;;;;5073439;28;20155;-52
2023/06/15 08:58:39;;;;;;;7.10;4.55;;;22.20;88.00;;;;;;5073918;28;20052;-52
2023/06/15 09:01:06;;;;;;;6.47;4.30;;;22.20;88.10;;;;;;5074451;28;20032;-52
2023/06/15 09:03:36;;;;;;;6.65;4.80;;;22.30;88.10;;;;;;5072446;28;20048;-52
2023/06/15 09:06:02;;;;;;;5.80;4.35;;;22.30;88.10;;;;;;5067698;28;20114;-52
2023/06/15 09:08:28;;;;;;;8.63;4.78;;;22.30;88.40;;;;;;5077676;28;20040;-52
2023/06/15 09:11:08;;;;;;;9.70;5.05;;;22.40;88.40;;;;;;5077245;28;20518;-52
2023/06/15 09:13:34;;;;;;;7.78;4.95;;;22.40;88.60;;;;;;5079332;28;20032;-52
2023/06/15 09:16:01;;;;;;;11.35;5.50;;;22.50;88.70;;;;;;5078548;28;20068;-52
2023/06/15 09:18:28;;;;;;;10.40;4.53;;;22.50;88.80;;;;;;5078859;28;20076;-52
2023/06/15 09:21:01;;;;;;;6.72;4.88;;;22.50;89.00;;;;;;5071901;28;20045;-52
2023/06/15 09:23:27;;;;;;;7.72;4.95;;;22.50;88.70;;;;;;5077788;28;20056;-52
2023/06/15 09:25:56;;;;;;;6.50;4.13;;;22.50;88.40;;;;;;5077202;28;20040;-52
2023/06/15 09:28:26;;;;;;;10.70;5.18;;;22.50;88.30;;;;;;5078230;28;20047;-52
2023/06/15 09:30:55;;;;;;;9.93;5.35;;;22.60;88.10;;;;;;5075284;28;20036;-52
2023/06/15 09:33:21;;;;;;;11.90;5.32;;;22.60;87.90;;;;;;5074559;28;20097;-52
2023/06/15 09:36:00;;;;;;;8.20;5.45;;;22.70;87.50;;;;;;5076896;28;20045;-52
2023/06/15 09:38:45;;;;;;;6.90;4.70;;;22.70;87.10;;;;;;5074783;28;20144;-52
2023/06/15 09:41:11;;;;;;;9.18;5.65;;;22.70;86.40;;;;;;5074491;28;20130;-52
2023/06/15 09:43:40;;;;;;;6.75;5.35;;;22.70;86.00;;;;;;5073616;28;20041;-52
2023/06/15 09:46:13;;;;;;;10.10;5.38;;;22.70;85.80;;;;;;5090850;27;20117;-52
2023/06/15 09:48:49;;;;;;;10.57;5.43;;;22.80;85.80;;;;;;5074479;28;20547;-52
2023/06/15 09:51:16;;;;;;;11.32;5.03;;;22.80;85.40;;;;;;5075927;28;20036;-52
2023/06/15 09:53:43;;;;;;;6.93;4.85;;;22.90;85.20;;;;;;5073043;28;20040;-52
2023/06/15 09:56:10;;;;;;;8.93;4.70;;;22.90;84.90;;;;;;5076135;28;20049;-52
2023/06/15 09:58:36;;;;;;;10.73;5.75;;;22.90;84.60;;;;;;5075134;28;20098;-52
2023/06/15 10:01:07;;;;;;;6.13;4.50;;;23.00;84.60;;;;;;5072351;28;20082;-52
2023/06/15 10:03:33;;;;;;;6.53;4.90;;;23.00;83.90;;;;;;5072501;28;20111;-52
2023/06/15 10:06:08;;;;;;;7.57;5.00;;;23.00;83.40;;;;;;5073696;28;20271;-52
2023/06/15 10:08:38;;;;;;;6.35;5.10;;;23.00;83.10;;;;;;5072897;28;20041;-52
2023/06/15 10:11:04;;;;;;;9.02;5.22;;;23.00;82.80;;;;;;5072095;28;20036;-52
2023/06/15 10:13:57;;;;;;;6.18;4.63;;;23.10;81.90;;;;;;5073509;28;20038;-52
2023/06/15 10:16:24;;;;;;;7.30;5.03;;;23.20;80.70;;;;;;5075343;28;20045;-52
2023/06/15 10:18:58;;;;;;;7.00;4.55;;;23.20;80.30;;;;;;5086960;27;20121;-52
2023/06/15 10:21:28;;;;;;;6.30;4.47;;;23.20;79.30;;;;;;5075781;28;20120;-52
2023/06/15 10:24:02;;;;;;;6.15;4.97;;;23.30;77.50;;;;;;5089587;27;20599;-52
2023/06/15 10:26:28;;;;;;;7.68;4.60;;;23.40;76.90;;;;;;5072650;28;20121;-52
2023/06/15 10:29:08;;;;;;;7.57;4.85;;;23.40;76.80;;;;;;5074846;28;20036;-52
2023/06/15 10:32:01;;;;;;;5.68;4.57;;;23.40;76.70;;;;;;5073249;28;20049;-52
2023/06/15 10:34:50;;;;;;;8.23;5.25;;;23.40;76.80;;;;;;5072445;28;20043;-52
2023/06/15 10:37:31;;;;;;;5.65;4.57;;;23.40;75.90;;;;;;5074887;28;20634;-52
2023/06/15 10:40:10;;;;;;;7.95;4.78;;;23.50;75.50;;;;;;5070668;28;20065;-52
2023/06/15 10:42:48;;;;;;;6.78;4.07;;;23.60;75.20;;;;;;5073788;28;20065;-52
2023/06/15 10:45:34;;;;;;;10.52;5.00;;;23.60;75.00;;;;;;5073377;28;20037;-52
2023/06/15 10:48:02;;;;;;;7.00;4.50;;;23.60;74.00;;;;;;5073727;28;20051;-52
2023/06/15 10:50:39;;;;;;;6.85;3.83;;;23.60;73.90;;;;;;5072816;28;20086;-52
2023/06/15 10:53:05;;;;;;;7.28;4.72;;;23.70;73.50;;;;;;5088500;27;20037;-52
2023/06/15 10:55:31;;;;;;;8.80;4.55;;;23.70;73.60;;;;;;5071519;28;20048;-52
2023/06/15 10:58:16;;;;;;;8.07;4.95;;;23.70;73.90;;;;;;5071725;28;20532;-52
2023/06/15 11:01:07;;;;;;;7.50;4.43;;;23.80;73.10;;;;;;5071035;28;20044;-52
2023/06/15 11:03:33;;;;;;;6.60;5.20;;;23.80;73.30;;;;;;5073972;28;20077;-52
2023/06/15 11:06:09;;;;;;;8.02;4.78;;;23.90;74.00;;;;;;5074694;28;20041;-52
2023/06/15 11:09:03;;;;;;;8.38;4.85;;;23.90;74.50;;;;;;5071157;28;20088;-52
2023/06/15 11:11:36;;;;;;;7.88;5.18;;;24.00;74.50;;;;;;5068349;28;20057;-60
2023/06/15 11:14:05;;;;;;;11.57;5.30;;;24.00;74.80;;;;;;5068580;28;20045;-61
2023/06/15 11:16:35;;;;;;;83.43;32.10;;;23.90;75.20;;;;;;5072385;27;20338;-60
2023/06/15 11:19:10;;;;;;;71.55;28.90;;;24.00;75.10;;;;;;5069910;28;20599;-61
2023/06/15 11:21:50;;;;;;;46.97;21.20;;;24.00;74.60;;;;;;5074723;28;20044;-61
2023/06/15 11:24:16;;;;;;;22.65;10.65;;;24.10;73.40;;;;;;5072886;28;20064;-61
2023/06/15 11:26:50;;;;;;;13.52;6.28;;;24.20;73.60;;;;;;5089570;27;20053;-61
2023/06/15 11:29:25;;;;;;;14.43;8.82;;;24.20;73.20;;;;;;5073903;28;20041;-61
2023/06/15 11:31:55;;;;;;;8.40;4.97;;;24.20;72.80;;;;;;5076819;28;20098;-61
2023/06/15 11:34:21;;;;;;;17.15;9.82;;;24.20;72.20;;;;;;5075759;28;20041;-61
2023/06/15 11:36:47;;;;;;;9.02;5.93;;;24.30;72.30;;;;;;5093612;27;20037;-60
2023/06/15 11:39:23;;;;;;;10.27;5.53;;;24.30;72.80;;;;;;5076777;28;20040;-60
2023/06/15 11:41:50;;;;;;;11.23;5.35;;;24.40;73.00;;;;;;5071652;28;21223;-63
2023/06/15 11:44:16;;;;;;;9.15;5.20;;;24.40;72.60;;;;;;5077196;28;20043;-61
2023/06/15 11:46:42;;;;;;;7.95;5.38;;;24.40;72.70;;;;;;5076553;28;20044;-64
2023/06/15 11:49:12;;;;;;;9.90;6.88;;;24.40;72.90;;;;;;5076504;28;20040;-61
2023/06/15 11:51:42;;;;;;;7.75;5.03;;;24.50;72.80;;;;;;5088947;27;20040;-61
2023/06/15 11:54:10;;;;;;;6.15;4.53;;;24.50;72.50;;;;;;5076467;28;20060;-60
2023/06/15 11:56:43;;;;;;;6.18;4.78;;;24.40;72.40;;;;;;5076697;28;20128;-61
2023/06/15 11:59:09;;;;;;;10.32;6.53;;;24.40;72.50;;;;;;5075108;28;20539;-61
2023/06/15 12:01:36;;;;;;;17.40;11.27;;;24.50;72.70;;;;;;5076751;28;20119;-61
2023/06/15 12:04:10;;;;;;;9.63;6.07;;;24.60;72.60;;;;;;5072513;28;20036;-61
2023/06/15 12:06:36;;;;;;;8.25;5.40;;;24.60;72.40;;;;;;5089528;27;20483;-61
2023/06/15 12:09:02;;;;;;;7.97;4.53;;;24.60;72.10;;;;;;5074995;28;20049;-61
2023/06/15 12:11:27;;;;;;;9.85;5.32;;;24.70;71.70;;;;;;5094763;27;20523;-61
2023/06/15 12:14:01;;;;;;;9.52;4.78;;;24.80;71.50;;;;;;5078788;28;20037;-61
2023/06/15 12:16:29;;;;;;;12.40;6.20;;;24.80;71.30;;;;;;5077463;28;20575;-61
2023/06/15 12:18:58;;;;;;;10.50;5.10;;;24.90;71.00;;;;;;5077119;28;20048;-61
2023/06/15 12:21:24;;;;;;;8.75;4.70;;;24.90;70.50;;;;;;5077755;28;20043;-61
2023/06/15 12:23:50;;;;;;;20.50;9.23;;;25.00;70.60;;;;;;5077387;28;20079;-61
2023/06/15 12:26:17;;;;;;;8.52;4.80;;;25.00;70.80;;;;;;5077542;28;20045;-61
2023/06/15 12:28:50;;;;;;;9.73;6.13;;;25.00;70.80;;;;;;5078091;28;20044;-61
2023/06/15 12:31:16;;;;;;;9.25;5.38;;;25.10;71.00;;;;;;5077287;28;20878;-61
2023/06/15 12:33:42;;;;;;;5.93;4.40;;;25.10;70.70;;;;;;5077309;28;20045;-61
2023/06/15 12:36:14;;;;;;;7.63;5.70;;;25.10;70.60;;;;;;5075264;28;20135;-61
2023/06/15 12:38:46;;;;;;;6.38;4.35;;;25.10;70.40;;;;;;5078908;28;20171;-61
2023/06/15 12:41:12;;;;;;;;;;;25.10;70.40;;;;;;5077816;28;20045;-61
2023/06/15 12:43:38;;;;;;;7.75;4.85;;;25.10;70.20;;;;;;5077433;28;19926;-61